Time;durP1;ratioP1;P1;durP2;ratioP2;P2;SDS_P1;SDS_P2;PMS_P1;PMS_P2;Temp;Humidity;BMP_temperature;BMP_pressure;BME280_temperature;BME280_humidity;BME280_pressure;Samples;Min_cycle;Max_cycle;Signal;HPM_P1;HPM_P2
2022/11/19 00:02:18;;;;;;;;;7.25;7.25;;;;;9.09;68.41;100247.34;5016284;28;45676;-74
2022/11/19 00:04:43;;;;;;;;;11.00;6.00;;;;;9.08;68.61;100239.59;5016077;28;47435;-74
2022/11/19 00:07:08;;;;;;;;;7.00;6.50;;;;;9.03;68.53;100233.88;4998044;28;47659;-73
2022/11/19 00:09:34;;;;;;;;;6.00;6.00;;;;;8.99;68.69;100235.03;5015950;28;45540;-74
2022/11/19 00:14:43;;;;;;;;;7.00;6.00;;;;;8.95;69.16;100233.59;5015885;28;46300;-74
2022/11/19 00:17:08;;;;;;;;;5.25;5.00;;;;;8.89;68.95;100234.00;5015967;28;45675;-74
2022/11/19 00:19:34;;;;;;;;;7.00;6.00;;;;;8.85;69.29;100231.59;5016207;28;45697;-74
2022/11/19 00:21:59;;;;;;;;;9.00;7.00;;;;;8.90;69.09;100239.16;5015907;28;45626;-74
2022/11/19 00:24:28;;;;;;;;;10.50;9.25;;;;;8.89;69.30;100227.00;5015647;28;47275;-74
2022/11/19 00:30:15;;;;;;;;;9.75;5.75;;;;;8.89;69.52;100220.97;5015586;28;45544;-74
2022/11/19 00:32:41;;;;;;;;;6.25;6.00;;;;;8.91;69.27;100230.34;5016066;28;45786;-74
2022/11/19 00:35:07;;;;;;;;;11.25;9.00;;;;;8.95;69.16;100234.44;5015380;28;47494;-73
2022/11/19 00:37:32;;;;;;;;;9.75;8.50;;;;;8.89;69.05;100218.34;5015699;28;46155;-72
2022/11/19 00:39:58;;;;;;;;;4.00;3.00;;;;;8.99;69.59;100232.41;4997733;28;45662;-73
2022/11/19 00:42:24;;;;;;;;;10.00;8.25;;;;;8.99;69.18;100229.81;5015875;28;45580;-73
2022/11/19 00:44:50;;;;;;;;;8.00;7.00;;;;;8.95;69.27;100233.59;5015718;28;46537;-73
2022/11/19 00:47:15;;;;;;;;;6.25;6.00;;;;;8.94;69.26;100232.75;5015035;28;46512;-74
2022/11/19 00:49:41;;;;;;;;;10.00;9.00;;;;;8.91;69.57;100240.78;5015631;28;45519;-74
2022/11/19 00:52:06;;;;;;;;;9.50;8.50;;;;;8.92;69.81;100239.00;5015511;28;45794;-74
2022/11/19 00:54:32;;;;;;;;;7.00;7.00;;;;;8.92;69.63;100246.84;5015281;28;46303;-74
2022/11/19 01:00:19;;;;;;;;;9.00;7.00;;;;;8.92;69.40;100234.63;5015228;28;45966;-75
2022/11/19 01:02:44;;;;;;;;;10.25;6.00;;;;;8.85;69.66;100223.75;4997604;28;45771;-74
2022/11/19 01:05:09;;;;;;;;;12.25;10.00;;;;;8.83;69.60;100233.50;5015306;28;46588;-73
2022/11/19 01:07:35;;;;;;;;;16.50;11.25;;;;;8.82;69.58;100231.00;5015381;28;45596;-73
2022/11/19 01:10:00;;;;;;;;;10.75;9.00;;;;;8.81;69.64;100232.75;5014858;28;45784;-74
2022/11/19 01:15:48;;;;;;;;;5.75;5.50;;;;;8.77;69.46;100251.38;5014247;28;45635;-73
2022/11/19 01:18:14;;;;;;;;;8.50;7.00;;;;;8.65;69.75;100233.94;5014759;28;46236;-74
2022/11/19 01:20:40;;;;;;;;;9.50;6.00;;;;;8.59;69.67;100242.19;5014715;28;45600;-73
2022/11/19 01:23:05;;;;;;;;;7.50;6.25;;;;;8.56;69.80;100237.19;5014866;28;45490;-74
2022/11/19 01:25:30;;;;;;;;;6.00;5.50;;;;;8.62;70.21;100253.28;5014749;28;46440;-73
2022/11/19 01:27:57;;;;;;;;;9.00;7.00;;;;;8.62;70.24;100242.00;5014522;28;45571;-74
2022/11/19 01:30:22;;;;;;;;;8.50;6.00;;;;;8.55;70.10;100227.69;5014686;28;45858;-74
2022/11/19 01:32:48;;;;;;;;;7.50;6.00;;;;;8.62;70.19;100249.81;5014637;28;45841;-74
2022/11/19 01:35:13;;;;;;;;;11.00;7.00;;;;;8.61;70.15;100253.38;5014461;28;46658;-73
2022/11/19 01:37:38;;;;;;;;;6.25;5.50;;;;;8.58;70.08;100257.03;5014785;28;46444;-74
2022/11/19 01:40:04;;;;;;;;;2.00;2.00;;;;;8.52;70.05;100252.25;5014554;28;45541;-74
2022/11/19 01:45:53;;;;;;;;;7.00;5.50;;;;;8.52;70.27;100270.50;5014462;28;45469;-73
2022/11/19 01:48:28;;;;;;;;;6.50;5.25;;;;;8.47;70.30;100261.31;5014656;28;46134;-74
2022/11/19 01:51:00;;;;;;;;;6.00;5.50;;;;;8.37;70.07;100242.81;5013946;28;45607;-73
2022/11/19 01:53:30;;;;;;;;;6.25;5.50;;;;;8.51;70.33;100268.00;5014421;28;45508;-74
2022/11/19 01:56:02;;;;;;;;;6.00;5.00;;;;;8.50;70.32;100264.53;5014376;28;47897;-73
2022/11/19 01:58:30;;;;;;;;;7.25;4.00;;;;;8.46;70.61;100257.03;5014552;28;46136;-73
2022/11/19 02:00:55;;;;;;;;;6.00;5.25;;;;;8.49;70.31;100262.88;5014384;28;45821;-74
2022/11/19 02:03:21;;;;;;;;;6.75;5.00;;;;;8.49;70.17;100264.63;5014982;28;45675;-74
2022/11/19 02:05:47;;;;;;;;;6.00;4.50;;;;;8.49;70.17;100268.09;5014493;28;46463;-73
2022/11/19 02:08:36;;;;;;;;;1.25;1.25;;;;;8.48;70.21;100274.25;5014406;28;46065;-75
2022/11/19 02:18:00;;;;;;;;;6.00;5.00;;;;;8.52;70.42;100272.28;5013088;28;45767;-73
2022/11/19 02:20:34;;;;;;;;;2.75;2.75;;;;;8.51;70.28;100276.66;5013841;28;47147;-74
2022/11/19 02:23:17;;;;;;;;;4.25;4.00;;;;;8.53;70.57;100264.31;5013604;28;45824;-73
2022/11/19 02:26:05;;;;;;;;;7.00;5.00;;;;;8.53;70.57;100264.31;5014522;28;45760;-74
2022/11/19 02:32:12;;;;;;;;;4.50;3.25;;;;;8.54;70.36;100265.16;5013826;28;45541;-73
2022/11/19 02:34:45;;;;;;;;;9.75;6.00;;;;;8.53;70.54;100269.53;5013739;28;45725;-73
2022/11/19 02:37:23;;;;;;;;;3.00;3.00;;;;;8.45;70.80;100261.41;5013723;28;45608;-74
2022/11/19 02:40:14;;;;;;;;;4.50;3.00;;;;;8.57;70.72;100264.97;5013400;28;47458;-75
2022/11/19 02:42:45;;;;;;;;;5.00;3.50;;;;;8.60;70.46;100275.19;5013460;28;46147;-73
2022/11/19 02:45:33;;;;;;;;;5.75;3.00;;;;;8.60;70.65;100262.13;5013713;28;45557;-73
2022/11/19 02:48:13;;;;;;;;;5.25;3.50;;;;;8.63;70.67;100265.41;5014018;28;45617;-72
2022/11/19 02:50:47;;;;;;;;;5.25;4.50;;;;;8.65;70.38;100263.50;5013485;28;46959;-75
2022/11/19 02:53:12;;;;;;;;;7.00;6.75;;;;;8.67;70.58;100266.00;5013676;28;46333;-72
2022/11/19 02:55:38;;;;;;;;;6.25;6.00;;;;;8.63;70.45;100267.16;5013654;28;46156;-73
2022/11/19 03:04:28;;;;;;;;;3.00;2.25;;;;;8.63;70.65;100264.56;5013529;28;45616;-73
2022/11/19 03:06:33;;;;;;;;;5.00;3.00;;;;;8.62;70.44;100266.34;5016902;28;45869;-73
2022/11/19 03:08:59;;;;;;;;;4.50;3.00;;;;;8.60;70.58;100272.59;5017345;28;45678;-73
2022/11/19 03:11:29;;;;;;;;;6.00;2.75;;;;;8.63;70.47;100264.56;5016898;28;46610;-73
2022/11/19 03:17:50;;;;;;;;;5.75;3.50;;;;;8.58;70.42;100274.47;5016633;28;45837;-74
2022/11/19 03:20:37;;;;;;;;;6.25;4.50;;;;;8.57;70.78;100275.41;4917312;28;45632;-74
2022/11/19 03:23:08;;;;;;;;;4.25;4.00;;;;;8.55;71.01;100274.66;4916948;28;47345;-74
2022/11/19 03:25:40;;;;;;;;;4.00;2.75;;;;;8.55;70.74;100275.50;4917447;28;46030;-73
2022/11/19 03:31:30;;;;;;;;;2.25;2.25;;;;;8.58;70.84;100282.31;4917460;28;45702;-74
2022/11/19 03:34:00;;;;;;;;;3.50;3.50;;;;;8.57;70.83;100280.63;4917179;28;46496;-74
2022/11/19 03:36:31;;;;;;;;;6.25;5.00;;;;;8.59;70.74;100286.56;4916940;28;46410;-73
2022/11/19 03:39:02;;;;;;;;;5.75;3.00;;;;;8.58;70.84;100271.88;4917557;28;45730;-73
2022/11/19 03:41:29;;;;;;;;;3.50;2.00;;;;;8.64;70.82;100279.25;4918025;28;45741;-74
2022/11/19 03:47:28;;;;;;;;;6.00;3.50;;;;;8.68;70.81;100283.34;4917134;28;46243;-73
2022/11/19 03:50:01;;;;;;;;;5.25;2.75;;;;;8.73;70.91;100291.72;4916915;28;46102;-73
2022/11/19 03:52:27;;;;;;;;;5.00;3.00;;;;;8.74;70.74;100281.16;4917078;28;45522;-73
2022/11/19 03:54:53;;;;;;;;;3.00;2.00;;;;;8.75;70.70;100288.03;4930872;28;46467;-72
2022/11/19 03:57:22;;;;;;;;;3.50;3.00;;;;;8.80;70.58;100298.16;5015758;28;47330;-72
2022/11/19 03:59:48;;;;;;;;;3.50;2.75;;;;;8.75;70.57;100285.41;5015846;28;46069;-73
2022/11/19 04:02:14;;;;;;;;;5.00;3.50;;;;;8.79;70.33;100293.91;5016566;28;45529;-74
2022/11/19 04:04:39;;;;;;;;;6.75;3.00;;;;;8.79;70.52;100296.50;4998121;28;48249;-73
2022/11/19 04:07:13;;;;;;;;;5.00;2.75;;;;;8.77;70.33;100293.16;5015856;28;46246;-74
2022/11/19 04:09:40;;;;;;;;;3.00;2.25;;;;;8.74;70.38;100296.00;5016215;28;45611;-73
2022/11/19 04:12:08;;;;;;;;;5.00;3.00;;;;;8.72;70.71;100295.25;5016521;28;45548;-74
2022/11/19 04:17:55;;;;;;;;;4.00;4.00;;;;;8.64;70.60;100290.53;5013946;28;45653;-72
2022/11/19 04:20:20;;;;;;;;;4.50;3.00;;;;;8.65;70.53;100300.06;5016212;28;45465;-73
2022/11/19 04:22:46;;;;;;;;;6.00;3.50;;;;;8.66;70.53;100303.50;5015903;28;45618;-73
2022/11/19 04:25:11;;;;;;;;;6.00;3.00;;;;;8.67;70.77;100306.03;5015868;28;45482;-74
2022/11/19 04:27:37;;;;;;;;;6.00;5.50;;;;;8.65;70.86;100296.59;5015500;28;47081;-74
2022/11/19 04:30:03;;;;;;;;;5.00;3.00;;;;;8.70;70.71;100311.00;5015607;28;45682;-74
2022/11/19 04:32:29;;;;;;;;;3.00;2.25;;;;;8.70;70.60;100316.25;5015701;28;45534;-72
2022/11/19 04:34:54;;;;;;;;;3.00;2.25;;;;;8.71;70.79;100311.84;5015883;28;46485;-72
2022/11/19 04:37:19;;;;;;;;;5.00;3.00;;;;;8.70;70.73;100320.63;5015372;28;47014;-74
2022/11/19 04:39:45;;;;;;;;;3.00;3.00;;;;;8.71;70.41;100317.91;5015799;28;45651;-74
2022/11/19 04:42:10;;;;;;;;;5.75;3.00;;;;;8.71;70.73;100317.09;5015859;28;45711;-74
2022/11/19 04:47:57;;;;;;;;;6.50;5.00;;;;;8.71;70.84;100309.25;5015356;28;46095;-73
2022/11/19 04:50:22;;;;;;;;;1.75;1.25;;;;;8.76;70.82;100322.81;5015591;28;45441;-73
2022/11/19 04:52:48;;;;;;;;;4.00;2.75;;;;;8.76;70.71;100331.50;5015703;28;45914;-74
2022/11/19 04:55:13;;;;;;;;;5.00;4.00;;;;;8.77;70.82;100332.34;5015271;28;45705;-74
2022/11/19 04:57:38;;;;;;;;;5.25;5.00;;;;;8.77;71.09;100335.78;5015373;28;45684;-74
2022/11/19 05:03:25;;;;;;;;;5.00;4.50;;;;;8.75;70.75;100329.81;5015262;28;45625;-73
2022/11/19 05:05:51;;;;;;;;;5.25;4.50;;;;;8.77;70.74;100327.94;5015020;28;47469;-73
2022/11/19 05:08:16;;;;;;;;;5.75;5.75;;;;;8.81;70.73;100339.84;5015409;28;45593;-74
2022/11/19 05:10:42;;;;;;;;;4.00;3.00;;;;;8.79;70.98;100333.09;5015315;28;45656;-74
2022/11/19 05:13:08;;;;;;;;;4.00;3.00;;;;;8.85;70.65;100341.31;5015177;28;45826;-74
2022/11/19 05:15:33;;;;;;;;;6.00;5.00;;;;;8.85;70.87;100335.28;5015047;28;46316;-73
2022/11/19 05:17:59;;;;;;;;;5.25;3.00;;;;;8.92;70.86;100352.19;5014797;28;45999;-74
2022/11/19 05:20:24;;;;;;;;;7.00;5.25;;;;;8.89;70.68;100338.50;5015080;28;45589;-73
2022/11/19 05:22:49;;;;;;;;;5.00;5.00;;;;;8.91;70.82;100337.44;5014823;28;45864;-73
2022/11/19 05:25:15;;;;;;;;;5.50;5.25;;;;;8.98;70.55;100345.69;5015130;28;45627;-74
2022/11/19 05:27:40;;;;;;;;;6.25;4.50;;;;;8.89;70.90;100334.13;4995764;28;48253;-74
2022/11/19 05:33:27;;;;;;;;;5.75;4.50;;;;;8.92;70.85;100341.72;5014773;28;45708;-73
2022/11/19 05:35:52;;;;;;;;;3.00;3.00;;;;;8.95;71.13;100345.94;5014793;28;45497;-74
2022/11/19 05:38:18;;;;;;;;;4.50;3.50;;;;;8.93;70.98;100348.63;5014807;28;45695;-74
2022/11/19 05:40:44;;;;;;;;;5.25;5.00;;;;;8.85;71.39;100351.75;5014880;28;45783;-74
2022/11/19 05:43:10;;;;;;;;;5.00;3.00;;;;;8.94;71.46;100345.09;5014836;28;45663;-73
2022/11/19 05:48:57;;;;;;;;;3.50;3.50;;;;;8.84;71.26;100334.44;5014423;28;45958;-74
2022/11/19 05:51:22;;;;;;;;;5.00;3.50;;;;;8.85;71.19;100340.50;5013859;28;45624;-74
2022/11/19 05:53:48;;;;;;;;;3.00;3.00;;;;;8.71;71.73;100312.69;5014281;28;45986;-73
2022/11/19 05:56:13;;;;;;;;;4.00;3.00;;;;;8.84;71.40;100341.44;4995119;28;47296;-74
2022/11/19 05:58:38;;;;;;;;;4.50;4.50;;;;;8.85;71.72;100343.13;5012819;28;46520;-74
2022/11/19 06:01:04;;;;;;;;;5.50;4.50;;;;;8.82;71.44;100330.25;5014411;28;45573;-73
2022/11/19 06:03:30;;;;;;;;;5.25;3.50;;;;;8.87;71.51;100336.00;5014418;28;45677;-74
2022/11/19 06:05:55;;;;;;;;;2.50;2.50;;;;;8.86;71.58;100336.94;5013678;28;46546;-73
2022/11/19 06:08:21;;;;;;;;;6.00;4.50;;;;;8.80;71.47;100338.19;5014103;28;45751;-73
2022/11/19 06:10:46;;;;;;;;;6.00;5.00;;;;;8.86;71.65;100339.53;5013615;28;45823;-72
2022/11/19 06:13:11;;;;;;;;;4.50;4.00;;;;;8.88;71.61;100336.81;5014853;28;45683;-73
2022/11/19 06:18:58;;;;;;;;;5.25;3.50;;;;;8.84;71.23;100334.44;5012191;28;46194;-74
2022/11/19 06:21:23;;;;;;;;;4.50;3.50;;;;;8.84;71.51;100336.22;4996486;28;45573;-73
2022/11/19 06:23:49;;;;;;;;;5.50;5.00;;;;;8.89;71.43;100347.19;5014259;28;45618;-74
2022/11/19 06:26:22;;;;;;;;;5.00;3.00;;;;;8.89;71.15;100336.72;4996045;28;47760;-73
2022/11/19 06:28:47;;;;;;;;;6.00;6.00;;;;;8.98;71.33;100343.94;5013869;28;46150;-74
2022/11/19 06:34:34;;;;;;;;;5.00;3.50;;;;;9.01;71.36;100348.97;5014110;28;45508;-75
2022/11/19 06:37:00;;;;;;;;;4.50;4.50;;;;;9.06;71.11;100359.94;5013922;28;45477;-74
2022/11/19 06:39:25;;;;;;;;;4.00;3.00;;;;;9.07;71.39;100366.00;5013309;28;46167;-74
2022/11/19 06:41:51;;;;;;;;;2.00;2.00;;;;;9.04;71.07;100374.88;5014072;28;45535;-74
2022/11/19 06:44:16;;;;;;;;;2.00;2.00;;;;;8.99;71.34;100376.13;4995899;28;45866;-72
2022/11/19 06:46:41;;;;;;;;;3.50;3.00;;;;;8.91;71.19;100381.84;5013749;28;45555;-74
2022/11/19 06:49:08;;;;;;;;;5.25;5.00;;;;;8.85;71.30;100383.09;5013726;28;45597;-74
2022/11/19 06:51:33;;;;;;;;;5.00;3.00;;;;;8.82;71.32;100387.72;4995959;28;45955;-72
2022/11/19 06:53:58;;;;;;;;;5.00;5.00;;;;;8.79;71.43;100393.16;5013984;28;45656;-73
2022/11/19 06:56:24;;;;;;;;;8.00;4.50;;;;;8.77;71.57;100400.25;5013550;28;46291;-73
2022/11/19 06:58:49;;;;;;;;;1.00;0.75;;;;;8.79;71.69;100388.78;5013322;28;47045;-74
2022/11/19 07:04:36;;;;;;;;;5.75;3.50;;;;;8.67;71.37;100383.53;5013627;28;45560;-74
2022/11/19 07:07:03;;;;;;;;;5.50;5.00;;;;;8.65;71.81;100381.00;5013549;28;45521;-73
2022/11/19 07:09:28;;;;;;;;;6.25;4.50;;;;;8.67;71.92;100396.56;4996026;28;46234;-72
2022/11/19 07:11:54;;;;;;;;;6.50;5.25;;;;;8.68;71.73;100406.94;5013700;28;45663;-74
2022/11/19 07:14:19;;;;;;;;;5.75;5.25;;;;;8.67;72.04;100409.63;5013791;28;45671;-73
2022/11/19 07:16:44;;;;;;;;;4.00;3.25;;;;;8.61;71.93;100403.03;5013458;28;46473;-74
2022/11/19 07:19:10;;;;;;;;;7.00;5.75;;;;;8.63;72.14;100410.78;5013255;28;46118;-73
2022/11/19 07:21:35;;;;;;;;;6.00;4.50;;;;;8.60;71.98;100417.03;5013899;28;45838;-74
2022/11/19 07:24:03;;;;;;;;;9.75;7.00;;;;;8.59;71.90;100417.97;5013445;28;45889;-74
2022/11/19 07:26:31;;;;;;;;;16.00;12.00;;;;;8.51;72.28;100403.75;5013244;28;47433;-74
2022/11/19 07:28:59;;;;;;;;;8.50;6.25;;;;;8.60;72.21;100422.25;5013280;28;46066;-74
2022/11/19 07:34:46;;;;;;;;;11.00;6.25;;;;;8.40;72.14;100402.69;5013207;28;45605;-74
2022/11/19 07:37:11;;;;;;;;;4.00;3.00;;;;;8.56;72.19;100431.22;4995426;28;47344;-74
2022/11/19 07:39:37;;;;;;;;;5.50;5.00;;;;;8.55;72.31;100433.94;4995040;28;47666;-73
2022/11/19 07:45:06;;;;;;;;;5.25;5.00;;;;;8.51;72.41;100441.16;4971600;28;45677;-74
2022/11/19 07:47:33;;;;;;;;;6.50;5.50;;;;;8.59;72.29;100464.97;4971211;28;46208;-74
2022/11/19 07:49:58;;;;;;;;;9.00;5.00;;;;;8.58;72.40;100439.81;4972398;28;46159;-74
2022/11/19 07:52:23;;;;;;;;;6.25;6.00;;;;;8.59;72.32;100438.84;4975076;28;45762;-74
2022/11/19 07:54:48;;;;;;;;;6.00;6.00;;;;;8.65;72.25;100454.13;4974929;28;45815;-74
2022/11/19 07:57:14;;;;;;;;;7.00;5.25;;;;;8.64;72.29;100447.22;4974632;28;46314;-73
2022/11/19 07:59:39;;;;;;;;;7.00;5.75;;;;;8.68;72.31;100459.16;4974610;28;45696;-73
2022/11/19 08:02:04;;;;;;;;;9.25;6.25;;;;;8.66;72.33;100461.03;4974488;28;45680;-72
2022/11/19 08:04:30;;;;;;;;;5.25;5.25;;;;;8.70;72.22;100457.25;4974869;28;45582;-73
2022/11/19 08:06:55;;;;;;;;;5.50;5.00;;;;;8.70;72.34;100465.09;4957952;28;48154;-74
2022/11/19 08:09:21;;;;;;;;;6.00;5.50;;;;;8.76;72.02;100474.31;4974120;28;47145;-73
2022/11/19 08:11:46;;;;;;;;;7.00;6.50;;;;;8.79;72.02;100484.56;4974661;28;45678;-73
2022/11/19 08:14:12;;;;;;;;;6.25;5.25;;;;;8.83;72.10;100483.44;4974455;28;45949;-74
2022/11/19 08:19:59;;;;;;;;;6.25;6.00;;;;;8.90;72.00;100482.09;5014210;28;46152;-74
2022/11/19 08:22:24;;;;;;;;;4.50;4.50;;;;;8.92;71.96;100493.25;5015901;28;45642;-74
2022/11/19 08:24:50;;;;;;;;;5.25;5.00;;;;;8.96;71.86;100496.53;5015900;28;45591;-73
2022/11/19 08:27:16;;;;;;;;;6.00;6.00;;;;;9.00;71.91;100498.00;5015786;28;45623;-73
2022/11/19 08:29:41;;;;;;;;;5.75;5.00;;;;;8.99;71.72;100497.16;5015708;28;46499;-74
2022/11/19 08:35:31;;;;;;;;;5.50;4.50;;;;;9.06;71.85;100505.44;5015850;28;45703;-75
2022/11/19 08:37:57;;;;;;;;;5.50;4.00;;;;;9.11;71.63;100517.25;5014800;28;45631;-74
2022/11/19 08:40:24;;;;;;;;;6.00;5.50;;;;;9.12;71.63;100516.28;5015698;28;45793;-73
2022/11/19 08:42:59;;;;;;;;;5.25;5.00;;;;;9.15;71.54;100510.88;5015728;28;45766;-73
2022/11/19 08:45:33;;;;;;;;;4.50;4.50;;;;;9.24;71.47;100519.88;5015476;28;45499;-73
2022/11/19 08:48:01;;;;;;;;;5.75;3.00;;;;;9.19;71.96;100511.50;5015479;28;45910;-74
2022/11/19 08:50:28;;;;;;;;;5.00;4.00;;;;;9.21;71.65;100504.41;5015633;28;45565;-74
2022/11/19 08:52:58;;;;;;;;;6.00;5.00;;;;;9.31;71.48;100518.53;5015922;28;45870;-74
2022/11/19 08:55:24;;;;;;;;;5.25;3.00;;;;;9.26;71.39;100508.38;5015382;28;45617;-74
2022/11/19 08:57:50;;;;;;;;;5.00;3.00;;;;;9.36;71.40;100523.44;5015537;28;45504;-74
2022/11/19 09:00:17;;;;;;;;;6.00;5.00;;;;;9.41;71.36;100526.56;5015173;28;45510;-73
2022/11/19 09:02:42;;;;;;;;;6.33;6.00;;;;;9.44;71.10;100532.44;5015188;28;45996;-74
2022/11/19 09:05:08;;;;;;;;;6.00;6.00;;;;;9.45;71.31;100514.97;5015331;28;45521;-74
2022/11/19 09:07:34;;;;;;;;;7.00;6.00;;;;;9.56;71.07;100530.75;5015308;28;45592;-75
2022/11/19 09:09:59;;;;;;;;;7.50;6.50;;;;;9.54;71.29;100527.44;5015500;28;45679;-74
2022/11/19 09:12:24;;;;;;;;;6.75;6.00;;;;;9.67;71.19;100530.88;5015458;28;45641;-75
2022/11/19 09:14:50;;;;;;;;;7.75;6.50;;;;;9.71;70.87;100526.28;5015466;28;45643;-74
2022/11/19 09:20:36;;;;;;;;;5.75;5.25;;;;;9.86;70.93;100535.69;5013906;28;46495;-73
2022/11/19 09:23:02;;;;;;;;;7.00;6.00;;;;;9.92;70.41;100532.66;5015284;28;45569;-73
2022/11/19 09:25:28;;;;;;;;;7.25;6.00;;;;;9.95;70.58;100530.63;5015289;28;45689;-74
2022/11/19 09:27:53;;;;;;;;;3.00;2.00;;;;;10.00;70.28;100535.56;5014982;28;45533;-74
2022/11/19 09:30:18;;;;;;;;;6.75;6.50;;;;;10.04;70.32;100527.38;5014498;28;46098;-72
2022/11/19 09:32:44;;;;;;;;;5.00;5.00;;;;;10.09;70.07;100535.72;5014792;28;45745;-78
2022/11/19 09:35:09;;;;;;;;;5.00;5.00;;;;;10.04;70.10;100524.75;5015333;28;45620;-75
2022/11/19 09:37:35;;;;;;;;;7.00;5.00;;;;;10.17;69.98;100532.63;5014774;28;46169;-74
2022/11/19 09:40:00;;;;;;;;;7.00;6.50;;;;;10.22;69.68;100537.53;5014613;28;46312;-74
2022/11/19 09:42:51;;;;;;;;;6.00;3.50;;;;;10.29;69.81;100549.25;5015040;28;45658;-75
2022/11/19 09:51:53;;;;;;;;;6.75;6.00;;;;;10.27;69.47;100553.75;5014352;28;45741;-77
2022/11/19 09:54:21;;;;;;;;;6.50;6.00;;;;;10.24;69.21;100546.97;5014946;28;45493;-77
2022/11/19 09:56:48;;;;;;;;;5.00;5.00;;;;;10.31;69.23;100561.28;4996667;28;45541;-78
2022/11/19 09:59:35;;;;;;;;;7.75;5.75;;;;;10.29;69.22;100549.25;5014489;28;46824;-74
2022/11/19 10:02:12;;;;;;;;;6.00;4.25;;;;;10.33;68.96;100548.91;5014239;28;46225;-77
2022/11/19 10:04:37;;;;;;;;;3.50;2.75;;;;;10.32;69.10;100555.09;4996461;28;45776;-76
2022/11/19 10:07:05;;;;;;;;;6.00;6.00;;;;;10.36;69.03;100556.56;5014621;28;45755;-77
2022/11/19 10:09:43;;;;;;;;;5.00;4.50;;;;;10.33;68.92;100551.53;5014662;28;46471;-76
2022/11/19 10:12:29;;;;;;;;;5.50;5.50;;;;;10.37;68.75;100560.84;5013871;28;45537;-74
2022/11/19 10:15:00;;;;;;;;;6.00;5.00;;;;;10.40;68.80;100559.81;5014166;28;45685;-74
2022/11/19 10:17:58;;;;;;;;;5.75;4.00;;;;;10.41;68.82;100554.47;5014117;28;45763;-73
2022/11/19 10:20:49;;;;;;;;;5.50;3.50;;;;;10.37;68.71;100549.53;5013800;28;46849;-74
2022/11/19 10:23:17;;;;;;;;;3.75;3.75;;;;;10.40;68.80;100558.03;5013916;28;46359;-75
2022/11/19 10:25:54;;;;;;;;;5.00;3.00;;;;;10.39;68.62;100543.25;5013948;28;45768;-74
2022/11/19 10:28:31;;;;;;;;;3.00;3.00;;;;;10.42;68.57;100553.50;4996140;28;45545;-73
2022/11/19 10:34:29;;;;;;;;;4.75;3.75;;;;;10.47;68.56;100553.19;5012661;28;45727;-73
2022/11/19 10:37:06;;;;;;;;;4.75;4.75;;;;;10.43;68.41;100546.47;5014039;28;45584;-75
2022/11/19 10:39:46;;;;;;;;;6.25;5.25;;;;;10.45;68.41;100557.69;4995971;28;45884;-75
2022/11/19 10:42:24;;;;;;;;;6.75;6.00;;;;;10.40;68.51;100550.16;5013501;28;46379;-73
2022/11/19 10:45:19;;;;;;;;;3.75;3.75;;;;;10.44;68.51;100553.41;4978888;28;46398;-75
2022/11/19 10:51:12;;;;;;;;;6.00;5.00;;;;;10.48;68.36;100546.97;5013685;28;45537;-74
2022/11/19 10:53:39;;;;;;;;;6.00;3.00;;;;;10.49;68.25;100541.63;5013309;28;46918;-76
2022/11/19 10:56:13;;;;;;;;;4.50;4.25;;;;;10.44;68.25;100532.44;5013602;28;46057;-76
2022/11/19 10:58:45;;;;;;;;;4.00;4.00;;;;;10.49;68.29;100548.66;5013120;28;45780;-74
2022/11/19 11:07:57;;;;;;;;;3.75;3.25;;;;;10.63;67.91;100545.91;5013288;28;46267;-75
2022/11/19 11:10:30;;;;;;;;;4.00;3.75;;;;;10.66;67.91;100550.91;5013697;28;45530;-74
2022/11/19 11:16:14;;;;;;;;;4.50;4.00;;;;;10.70;67.83;100525.31;5012917;28;45528;-75
2022/11/19 11:18:40;;;;;;;;;4.50;3.00;;;;;10.84;67.70;100544.34;5013085;28;46438;-76
2022/11/19 11:21:10;;;;;;;;;3.75;3.75;;;;;10.89;67.35;100542.22;5013153;28;45604;-74
2022/11/19 11:23:47;;;;;;;;;4.00;3.00;;;;;10.96;67.24;100552.25;5013252;28;45516;-74
2022/11/19 11:26:20;;;;;;;;;1.25;0.00;;;;;11.03;67.18;100548.22;5015983;28;46260;-77
2022/11/19 11:28:59;;;;;;;;;5.50;3.75;;;;;11.09;67.06;100537.28;4998189;28;47149;-78
2022/11/19 11:34:50;;;;;;;;;5.50;3.00;;;;;11.04;66.38;100528.91;5016701;28;45538;-73
2022/11/19 11:37:15;;;;;;;;;4.00;3.25;;;;;11.09;66.55;100537.28;5015831;28;46627;-74
2022/11/19 11:39:43;;;;;;;;;3.00;3.00;;;;;11.16;66.65;100541.97;5016416;28;47234;-74
2022/11/19 11:42:11;;;;;;;;;4.50;4.00;;;;;11.20;66.53;100539.94;5016393;28;45772;-74
2022/11/19 11:44:46;;;;;;;;;4.00;4.00;;;;;11.19;66.39;100538.25;5015708;28;45500;-75
2022/11/19 11:50:36;;;;;;;;;3.25;3.00;;;;;11.21;66.32;100545.06;5016657;28;45678;-77
2022/11/19 11:53:08;;;;;;;;;4.00;3.50;;;;;11.22;66.14;100533.63;5016499;28;45721;-74
2022/11/19 11:55:34;;;;;;;;;7.00;5.00;;;;;11.18;66.17;100516.44;4998540;28;45949;-76
2022/11/19 11:58:23;;;;;;;;;5.25;4.50;;;;;11.30;65.94;100527.81;5015922;28;46765;-74
2022/11/19 12:00:48;;;;;;;;;4.00;3.00;;;;;11.26;65.75;100515.88;5003164;28;46327;-76
2022/11/19 12:06:46;;;;;;;;;6.00;3.25;;;;;11.46;65.26;100524.84;5016385;28;45548;-76
2022/11/19 12:09:26;;;;;;;;;4.75;3.75;;;;;11.59;65.23;100533.47;5016370;28;45553;-80
2022/11/19 12:11:57;;;;;;;;;4.50;3.50;;;;;11.63;65.04;100538.38;5017436;28;45512;-79
2022/11/19 12:14:40;;;;;;;;;4.00;3.00;;;;;11.66;64.76;100524.19;5015864;28;45476;-77
2022/11/19 12:17:28;;;;;;;;;4.00;3.00;;;;;11.71;64.74;100527.28;5015550;28;45739;-78
2022/11/19 12:20:22;;;;;;;;;5.00;3.75;;;;;11.79;64.50;100524.94;4982815;28;46336;-79
2022/11/19 12:23:10;;;;;;;;;3.75;3.25;;;;;11.86;64.64;100528.75;5016078;28;46236;-78
2022/11/19 12:25:59;;;;;;;;;5.50;3.75;;;;;11.90;64.27;100521.47;5016084;28;45690;-77
2022/11/19 12:28:39;;;;;;;;;3.25;2.75;;;;;11.98;64.24;100516.47;4954572;28;45744;-78
2022/11/19 12:31:10;;;;;;;;;3.75;3.00;;;;;12.07;64.04;100513.09;4954842;28;46444;-78
2022/11/19 12:34:05;;;;;;;;;3.00;2.50;;;;;12.12;64.00;100510.94;4954629;28;46127;-79
2022/11/19 12:37:01;;;;;;;;;3.75;2.00;;;;;12.20;63.49;100514.63;4937455;28;46109;-79
2022/11/19 12:39:45;;;;;;;;;3.00;3.00;;;;;12.26;63.13;100510.69;4954536;28;45669;-79
2022/11/19 12:42:35;;;;;;;;;3.50;1.75;;;;;12.34;63.34;100517.97;4955074;28;46325;-78
2022/11/19 12:45:43;;;;;;;;;1.75;1.75;;;;;12.38;63.34;100508.88;4954605;28;46418;-82
2022/11/19 12:51:40;;;;;;;;;7.75;5.75;;;;;12.46;62.96;100504.69;4877924;28;45904;-78
2022/11/19 12:54:23;;;;;;;;;3.00;3.00;;;;;12.46;63.30;100514.38;4878228;29;46384;-81
2022/11/19 12:56:54;;;;;;;;;4.00;3.00;;;;;12.45;63.17;100510.91;4878014;29;46022;-77
2022/11/19 12:59:36;;;;;;;;;3.00;2.00;;;;;12.39;63.09;100505.28;4878025;29;45765;-77
2022/11/19 13:02:14;;;;;;;;;4.00;2.75;;;;;12.38;63.02;100501.81;4878546;29;45737;-78
2022/11/19 13:08:10;;;;;;;;;0.50;0.00;;;;;12.34;62.90;100521.44;4915757;28;46031;-77
2022/11/19 13:10:41;;;;;;;;;3.00;3.00;;;;;12.28;62.81;100518.44;4915204;28;45797;-77
2022/11/19 13:13:08;;;;;;;;;3.00;3.00;;;;;12.18;62.90;100505.22;4916077;28;45924;-79
2022/11/19 13:16:00;;;;;;;;;5.25;3.00;;;;;12.24;63.06;100509.16;4915710;28;46601;-79
2022/11/19 13:18:31;;;;;;;;;3.25;3.00;;;;;12.19;62.97;100506.91;4914976;28;45969;-78
2022/11/19 13:21:12;;;;;;;;;2.00;2.00;;;;;12.15;62.81;100506.28;4915232;28;45666;-77
2022/11/19 13:23:42;;;;;;;;;2.75;2.75;;;;;12.11;62.81;100509.28;4915600;28;45617;-78
2022/11/19 13:26:19;;;;;;;;;2.00;2.00;;;;;12.06;62.89;100491.25;5004357;28;45712;-76
2022/11/19 13:29:13;;;;;;;;;1.25;0.00;;;;;12.05;62.83;100499.25;5014385;28;46879;-78
2022/11/19 13:31:52;;;;;;;;;3.75;3.00;;;;;12.03;62.77;100494.16;5014892;28;45819;-77
2022/11/19 13:34:21;;;;;;;;;3.25;2.25;;;;;12.04;63.15;100505.44;5012579;28;45469;-77
2022/11/19 13:37:03;;;;;;;;;2.25;2.00;;;;;12.08;63.27;100492.00;5014644;28;45709;-77
2022/11/19 13:39:35;;;;;;;;;3.00;2.00;;;;;12.10;63.17;100503.19;5014541;28;46035;-75
2022/11/19 13:44:47;;;;;;;;;2.00;2.00;;;;;12.12;62.88;100500.44;5013375;28;45527;-76
2022/11/19 13:47:44;;;;;;;;;2.00;1.00;;;;;12.18;62.42;100503.44;5013564;28;47121;-78
2022/11/19 13:50:25;;;;;;;;;2.00;2.00;;;;;12.27;62.58;100529.91;5013201;28;46109;-78
2022/11/19 13:53:15;;;;;;;;;0.00;0.00;;;;;12.32;62.11;100510.19;5014681;28;45758;-77
2022/11/19 13:55:42;;;;;;;;;1.50;1.50;;;;;12.34;61.72;100516.19;5015043;28;45619;-77